Terminal Aerodrome Forecast
Issued by NWS

Home | Current Version | Previous Version | Text Only | Print | Product List | Glossary On
Versions: 1 2 3 4 5 6 7 8 9 10 11 12 13 14 15 16 17 18 19 20 21 22 23 24 25 26 27 28 29 30 31
241
FTUS45 KGJT 081125
TAFASE
TAF
KASE 081125Z 0812/0912 21006KT P6SM SCT250
     FM081500 VRB03KT P6SM SCT250
     FM082000 36004KT P6SM SCT250
     FM090200 21004KT P6SM FEW250=

USA.gov is the U.S. government's official web portal to all federal, state and local government web resources and services.